Time;durP1;ratioP1;P1;durP2;ratioP2;P2;SDS_P1;SDS_P2;PMS_P1;PMS_P2;Temp;Humidity;BMP_temperature;BMP_pressure;BME280_temperature;BME280_humidity;BME280_pressure;Samples;Min_cycle;Max_cycle;Signal;HPM_P1;HPM_P2
2021/12/28 00:01:26;;;;;;;;;0.00;0.00;;;;;11.03;77.99;98886.63;5024646;28;45421;-86
2021/12/28 00:03:52;;;;;;;;;0.00;0.00;;;;;11.13;77.93;98897.69;5025102;28;45338;-86
2021/12/28 00:06:19;;;;;;;;;0.00;0.00;;;;;10.88;78.06;98867.00;5024697;28;45441;-86
2021/12/28 00:08:45;;;;;;;;;0.00;0.00;;;;;10.75;78.25;98847.34;5024302;28;46404;-86
2021/12/28 00:11:12;;;;;;;;;0.00;0.00;;;;;11.25;77.75;98914.78;5023831;28;45258;-86
2021/12/28 00:13:38;;;;;;;;;0.00;0.00;;;;;10.77;78.50;98832.56;5024643;28;45285;-85
2021/12/28 00:18:32;;;;;;;;;0.00;0.00;;;;;10.55;78.47;98804.41;5024566;28;45461;-85
2021/12/28 00:21:03;;;;;;;;;0.00;0.00;;;;;11.17;78.75;98903.66;5024868;28;45357;-85
2021/12/28 00:23:36;;;;;;;;;0.00;0.00;;;;;10.54;78.87;98807.91;5024373;28;45409;-86
2021/12/28 00:26:05;;;;;;;;;0.00;0.00;;;;;10.42;79.08;98771.72;5022221;28;45258;-85
2021/12/28 00:28:30;;;;;;;;;0.00;0.00;;;;;10.66;79.13;98805.91;5023925;28;46263;-86
2021/12/28 00:30:58;;;;;;;;;0.00;0.00;;;;;11.20;79.05;98897.53;5023917;28;45346;-85
2021/12/28 00:33:25;;;;;;;;;0.00;0.00;;;;;11.01;78.96;98864.13;5057464;28;45244;-86
2021/12/28 00:35:51;;;;;;;;;0.00;0.00;;;;;10.34;78.88;98754.53;5064396;28;45467;-85
2021/12/28 00:38:22;;;;;;;;;0.00;0.00;;;;;11.15;79.28;98892.44;5063733;28;45413;-86
2021/12/28 00:40:54;;;;;;;;;0.00;0.00;;;;;11.04;79.37;98887.47;5064384;28;45342;-86
2021/12/28 00:43:19;;;;;;;;;0.00;0.00;;;;;11.04;79.27;98871.84;5064141;28;45411;-85
2021/12/28 00:45:46;;;;;;;;;0.00;0.00;;;;;10.66;79.28;98814.59;5070883;28;45286;-85
2021/12/28 00:48:11;;;;;;;;;0.00;0.00;;;;;10.95;79.61;98857.31;5063873;28;46111;-85
2021/12/28 00:50:37;;;;;;;;;0.00;0.00;;;;;11.25;79.53;98898.28;5062443;28;45323;-85
2021/12/28 00:53:03;;;;;;;;;0.00;0.00;;;;;11.12;79.37;98862.09;5064320;28;45401;-85
2021/12/28 00:55:29;;;;;;;;;0.00;0.00;;;;;11.15;79.16;98877.66;5063995;28;45518;-86
2021/12/28 00:57:55;;;;;;;;;0.00;0.00;;;;;10.87;79.16;98838.38;5062917;28;47163;-85
2021/12/28 01:00:23;;;;;;;;;0.00;0.00;;;;;11.27;79.39;98901.69;5069064;28;44654;-85
2021/12/28 01:02:50;;;;;;;;;0.75;0.00;;;;;11.29;79.56;98902.53;5070983;28;45226;-85
2021/12/28 01:05:15;;;;;;;;;0.00;0.00;;;;;11.32;79.16;98897.25;5073234;28;45390;-85
2021/12/28 01:07:41;;;;;;;;;0.00;0.00;;;;;10.56;79.11;98780.09;5077257;28;46201;-85
2021/12/28 01:10:11;;;;;;;;;0.00;0.00;;;;;11.28;79.37;98899.06;5064860;28;45455;-86
2021/12/28 01:12:37;;;;;;;;;0.00;0.00;;;;;11.28;79.84;98900.81;5063480;28;45230;-86
2021/12/28 01:15:06;;;;;;;;;0.00;0.00;;;;;11.05;80.02;98859.72;5062426;28;45259;-85
2021/12/28 01:17:32;;;;;;;;;0.00;0.00;;;;;10.77;79.69;98798.72;5063261;28;46112;-85
2021/12/28 01:19:57;;;;;;;;;0.00;0.00;;;;;10.96;79.75;98848.59;5063482;28;45326;-84
2021/12/28 01:22:23;;;;;;;;;0.00;0.00;;;;;11.38;79.77;98914.47;5061683;28;45554;-85
2021/12/28 01:24:48;;;;;;;;;0.00;0.00;;;;;11.41;79.73;98909.19;5063272;28;45317;-84
2021/12/28 01:27:14;;;;;;;;;0.00;0.00;;;;;11.18;79.64;98860.25;5063144;28;45356;-84
2021/12/28 01:29:39;;;;;;;;;0.00;0.00;;;;;10.94;79.63;98826.97;5063357;28;45382;-85
2021/12/28 01:32:07;;;;;;;;;0.00;0.00;;;;;10.95;79.40;98826.06;5058373;28;45199;-84
2021/12/28 01:34:33;;;;;;;;;0.00;0.00;;;;;11.36;79.63;98879.81;5045371;28;45489;-84
2021/12/28 01:36:58;;;;;;;;;0.50;0.00;;;;;11.51;79.42;98900.25;5043960;28;45822;-83
2021/12/28 01:39:23;;;;;;;;;0.00;0.00;;;;;11.12;79.49;98836.06;5043823;28;45256;-85
2021/12/28 01:41:49;;;;;;;;;0.00;0.00;;;;;11.36;79.29;98869.38;5043920;28;45565;-85
2021/12/28 01:44:14;;;;;;;;;0.00;0.00;;;;;10.93;79.75;98808.78;5044039;28;44955;-85
2021/12/28 01:46:40;;;;;;;;;0.00;0.00;;;;;10.72;79.43;98783.19;5043069;28;45480;-84
2021/12/28 01:49:08;;;;;;;;;0.00;0.00;;;;;11.14;79.21;98857.72;5043299;28;45279;-84
2021/12/28 01:51:34;;;;;;;;;0.00;0.00;;;;;11.55;79.54;98923.66;5042795;28;45295;-85
2021/12/28 01:54:01;;;;;;;;;0.00;0.00;;;;;11.38;79.33;98897.09;5043120;28;45334;-85
2021/12/28 01:56:37;;;;;;;;;0.00;0.00;;;;;11.11;79.33;98838.72;5042786;28;45237;-85
2021/12/28 01:59:04;;;;;;;;;0.00;0.00;;;;;11.12;79.01;98850.84;5042743;28;45445;-84
2021/12/28 02:01:29;;;;;;;;;0.00;0.00;;;;;11.39;79.14;98885.78;5042939;28;45312;-86
2021/12/28 02:03:55;;;;;;;;;0.00;0.00;;;;;11.62;78.23;98925.19;5043653;28;45386;-86
2021/12/28 02:06:22;;;;;;;;;0.00;0.00;;;;;11.18;78.37;98857.66;5044472;28;48352;-86
2021/12/28 02:08:47;;;;;;;;;0.00;0.00;;;;;11.51;78.19;98904.59;5042304;28;45380;-87
2021/12/28 02:11:13;;;;;;;;;0.00;0.00;;;;;11.91;78.14;98971.41;5043656;28;45504;-87
2021/12/28 02:13:40;;;;;;;;;0.00;0.00;;;;;11.63;78.08;98926.91;5043229;28;45426;-87
2021/12/28 02:16:06;;;;;;;;;0.00;0.00;;;;;11.98;77.46;98997.31;5042463;28;45582;-87
2021/12/28 02:18:33;;;;;;;;;0.00;0.00;;;;;11.68;77.65;98952.84;5044522;28;45271;-87
2021/12/28 02:21:00;;;;;;;;;1.00;1.00;;;;;11.99;77.20;98986.84;5048048;28;45327;-86
2021/12/28 02:23:26;;;;;;;;;0.00;0.00;;;;;11.43;76.90;98893.53;5062701;28;44733;-87
2021/12/28 02:25:52;;;;;;;;;0.00;0.00;;;;;11.66;76.77;98937.25;5044566;28;46309;-87
2021/12/28 02:28:18;;;;;;;;;1.00;0.00;;;;;11.84;76.64;98982.00;5040812;28;45332;-87
2021/12/28 02:30:46;;;;;;;;;0.00;0.00;;;;;12.00;76.87;99016.38;5042805;28;45364;-87
2021/12/28 02:33:12;;;;;;;;;0.00;0.00;;;;;11.26;76.35;98894.78;5057483;28;45222;-87
2021/12/28 02:35:38;;;;;;;;;0.00;0.00;;;;;11.84;76.64;99008.06;5063735;28;46187;-87
2021/12/28 02:38:06;;;;;;;;;0.00;0.00;;;;;11.58;76.42;98973.09;5061883;28;45309;-86
2021/12/28 02:40:34;;;;;;;;;0.00;0.00;;;;;11.35;76.26;98951.00;5062680;28;45302;-87
2021/12/28 02:43:01;;;;;;;;;0.00;0.00;;;;;11.86;75.71;99050.63;5061077;28;45347;-87
2021/12/28 02:45:36;;;;;;;;;1.00;0.00;;;;;11.39;76.38;98983.91;5062337;28;46692;-87
2021/12/28 02:48:03;;;;;;;;;0.00;0.00;;;;;11.34;76.56;98984.03;5062976;28;45340;-87
2021/12/28 02:50:35;;;;;;;;;0.00;0.00;;;;;11.78;76.48;99066.44;5065727;28;45202;-86
2021/12/28 02:53:00;;;;;;;;;0.00;0.00;;;;;11.48;76.33;99030.63;5065946;28;45227;-85
2021/12/28 02:55:30;;;;;;;;;0.00;0.00;;;;;11.41;76.27;99021.22;5065289;28;45320;-86
2021/12/28 02:58:20;;;;;;;;;0.00;0.00;;;;;11.27;76.30;99008.50;5065446;28;45309;-86
2021/12/28 03:00:54;;;;;;;;;3.00;0.00;;;;;11.70;76.15;99071.81;5035716;28;45304;-86
2021/12/28 03:03:23;;;;;;;;;0.00;0.00;;;;;11.40;76.46;99009.09;5064114;28;45493;-86
2021/12/28 03:05:51;;;;;;;;;0.00;0.00;;;;;11.59;76.17;99053.84;5065744;28;45361;-86
2021/12/28 03:08:20;;;;;;;;;0.00;0.00;;;;;11.19;75.98;98994.78;5063770;28;45346;-86
2021/12/28 03:10:49;;;;;;;;;0.00;0.00;;;;;11.50;76.05;99046.22;5065124;28;45256;-86
2021/12/28 03:13:20;;;;;;;;;0.00;0.00;;;;;11.78;75.88;99093.38;5065472;28;45643;-86
2021/12/28 03:15:45;;;;;;;;;0.00;0.00;;;;;11.83;75.96;99080.25;5064937;28;45247;-86
2021/12/28 03:18:14;;;;;;;;;0.00;0.00;;;;;11.98;75.59;99115.50;5065245;28;45296;-86
2021/12/28 03:20:39;;;;;;;;;1.00;0.00;;;;;11.38;75.61;99021.28;5065417;28;45401;-86
2021/12/28 03:23:05;;;;;;;;;0.00;0.00;;;;;11.50;75.66;99039.28;5065251;28;45385;-86
2021/12/28 03:25:31;;;;;;;;;0.00;0.00;;;;;11.81;75.87;99087.22;5064824;28;45437;-86
2021/12/28 03:27:59;;;;;;;;;0.00;0.00;;;;;11.27;75.55;99006.75;5061897;28;45454;-87
2021/12/28 03:30:25;;;;;;;;;0.00;0.00;;;;;11.27;75.66;99014.56;5035629;28;45353;-86
2021/12/28 03:32:51;;;;;;;;;0.00;0.00;;;;;11.90;75.92;99130.47;5039939;28;45282;-87
2021/12/28 03:35:18;;;;;;;;;0.00;0.00;;;;;11.94;75.57;99124.31;5037988;28;45329;-85
2021/12/28 03:37:44;;;;;;;;;0.00;0.00;;;;;11.09;75.70;98981.97;5052224;28;45343;-84
2021/12/28 03:40:13;;;;;;;;;0.00;0.00;;;;;11.52;75.69;99058.31;5040620;28;45589;-85
2021/12/28 03:42:39;;;;;;;;;0.50;0.50;;;;;11.78;75.57;99087.28;5054875;28;45579;-85
2021/12/28 03:45:07;;;;;;;;;0.00;0.00;;;;;11.44;75.40;99048.97;5036179;28;45352;-85
2021/12/28 03:47:35;;;;;;;;;0.00;0.00;;;;;12.00;75.60;99141.56;5044178;28;45252;-85
2021/12/28 03:50:01;;;;;;;;;0.00;0.00;;;;;12.05;75.38;99144.94;5044585;28;45336;-85
2021/12/28 03:52:27;;;;;;;;;0.00;0.00;;;;;11.76;75.29;99087.31;5042874;28;45495;-85
2021/12/28 03:54:52;;;;;;;;;0.00;0.00;;;;;11.48;74.97;99048.00;5043903;28;46323;-85
2021/12/28 03:57:18;;;;;;;;;0.00;0.00;;;;;12.09;75.18;99140.50;5044507;28;45370;-85
2021/12/28 03:59:43;;;;;;;;;1.00;0.00;;;;;11.48;75.01;99045.38;5041752;28;45463;-85
2021/12/28 04:02:09;;;;;;;;;0.00;0.00;;;;;11.66;75.15;99070.19;5041102;28;45500;-85
2021/12/28 04:04:34;;;;;;;;;0.00;0.00;;;;;11.87;75.31;99113.16;5057561;28;46200;-85
2021/12/28 04:07:00;;;;;;;;;0.00;0.00;;;;;11.68;75.38;99085.78;5044345;28;45274;-85
2021/12/28 04:09:45;;;;;;;;;0.00;0.00;;;;;11.96;75.16;99121.66;5044077;28;45209;-86
2021/12/28 04:12:11;;;;;;;;;0.00;0.00;;;;;11.29;75.05;99019.75;5044242;28;45244;-86
2021/12/28 04:14:36;;;;;;;;;0.00;0.00;;;;;11.35;75.39;99019.63;5043998;28;45729;-85
2021/12/28 04:17:02;;;;;;;;;0.00;0.00;;;;;11.47;75.19;99046.28;5043878;28;45278;-84
2021/12/28 04:19:27;;;;;;;;;0.00;0.00;;;;;12.11;75.01;99150.03;5044006;28;45204;-84
2021/12/28 04:21:52;;;;;;;;;0.00;0.00;;;;;12.13;74.84;99153.44;5032423;28;45545;-85
2021/12/28 04:24:18;;;;;;;;;0.00;0.00;;;;;11.48;74.74;99045.38;5031540;28;45386;-83
2021/12/28 04:26:43;;;;;;;;;0.00;0.00;;;;;11.87;74.73;99105.34;5047393;28;45204;-83
2021/12/28 04:29:09;;;;;;;;;0.00;0.00;;;;;12.17;74.88;99156.88;5033989;28;45334;-83
2021/12/28 04:31:34;;;;;;;;;0.00;0.00;;;;;12.12;75.15;99158.69;5037535;28;45391;-84
2021/12/28 04:34:00;;;;;;;;;0.00;0.00;;;;;11.89;74.86;99142.66;5035944;28;46060;-84
2021/12/28 04:36:25;;;;;;;;;0.00;0.00;;;;;11.51;74.96;99071.38;5037715;28;45239;-84
2021/12/28 04:38:51;;;;;;;;;0.00;0.00;;;;;11.83;74.75;99129.78;5036617;28;45661;-85
2021/12/28 04:41:16;;;;;;;;;0.00;0.00;;;;;11.77;74.62;99114.28;5034601;28;45516;-84
2021/12/28 04:43:42;;;;;;;;;0.00;0.00;;;;;11.79;74.81;99115.94;5037784;28;46585;-84
2021/12/28 04:46:07;;;;;;;;;0.00;0.00;;;;;11.70;74.47;99094.44;5034331;28;45367;-84
2021/12/28 04:48:34;;;;;;;;;0.00;0.00;;;;;12.09;74.69;99141.38;5033081;28;45405;-84
2021/12/28 04:51:04;;;;;;;;;0.00;0.00;;;;;11.73;74.33;99086.56;5034706;28;45258;-84
2021/12/28 04:53:30;;;;;;;;;0.00;0.00;;;;;11.96;74.21;99111.22;5042226;28;45073;-84
2021/12/28 04:55:55;;;;;;;;;0.75;0.00;;;;;11.82;74.06;99085.50;5042884;28;45475;-84
2021/12/28 04:58:21;;;;;;;;;0.00;0.00;;;;;12.09;74.38;99136.16;5039945;28;45424;-85
2021/12/28 05:00:54;;;;;;;;;0.00;0.00;;;;;11.71;74.03;99070.09;5038532;28;45530;-84
2021/12/28 05:03:21;;;;;;;;;0.00;0.00;;;;;11.51;73.86;99054.00;5036881;28;45361;-85
2021/12/28 05:05:50;;;;;;;;;0.00;0.00;;;;;12.23;73.52;99172.38;5036869;28;45460;-85
2021/12/28 05:08:19;;;;;;;;;0.00;0.00;;;;;12.05;73.62;99155.38;5034435;28;45242;-85
2021/12/28 05:10:44;;;;;;;;;1.50;0.00;;;;;11.61;74.00;99083.31;5034881;28;45438;-85
2021/12/28 05:13:10;;;;;;;;;0.00;0.00;;;;;11.93;73.84;99142.59;5032660;28;48218;-83
2021/12/28 05:15:36;;;;;;;;;0.00;0.00;;;;;11.81;73.56;99108.09;5050149;28;45479;-85
2021/12/28 05:18:02;;;;;;;;;0.00;0.00;;;;;12.13;73.08;99161.28;5044863;28;45355;-82
2021/12/28 05:20:28;;;;;;;;;0.00;0.00;;;;;12.35;73.52;99209.50;5043135;28;45409;-86
2021/12/28 05:22:53;;;;;;;;;0.00;0.00;;;;;12.22;73.30;99185.47;5041660;28;48421;-86
2021/12/28 05:25:18;;;;;;;;;0.00;0.00;;;;;12.07;72.93;99163.19;5043023;28;45341;-86
2021/12/28 05:27:44;;;;;;;;;0.00;0.00;;;;;12.35;72.81;99222.56;5042948;28;45255;-86
2021/12/28 05:30:10;;;;;;;;;0.00;0.00;;;;;12.40;72.91;99221.53;5043147;28;45404;-86
2021/12/28 05:32:36;;;;;;;;;0.00;0.00;;;;;12.03;72.72;99176.25;5052216;28;47965;-86
2021/12/28 05:35:03;;;;;;;;;4.00;0.00;;;;;11.65;72.30;99107.56;5062262;28;45274;-86
2021/12/28 05:37:28;;;;;;;;;0.00;0.00;;;;;11.76;72.81;99121.22;5063803;28;45312;-86
2021/12/28 05:39:54;;;;;;;;;0.00;0.00;;;;;11.84;72.21;99135.81;5062983;28;45275;-84
2021/12/28 05:42:20;;;;;;;;;0.00;0.00;;;;;12.12;72.46;99171.75;5063228;28;46144;-85
2021/12/28 05:44:46;;;;;;;;;0.00;0.00;;;;;12.14;72.30;99193.44;5062235;28;45456;-84
2021/12/28 05:47:11;;;;;;;;;0.00;0.00;;;;;12.46;72.33;99244.03;5064143;28;45360;-84
2021/12/28 05:49:37;;;;;;;;;0.00;0.00;;;;;12.38;72.71;99236.38;5068464;28;44836;-84
2021/12/28 05:52:03;;;;;;;;;0.50;0.00;;;;;12.38;72.64;99238.13;5069056;28;45331;-84
2021/12/28 05:54:29;;;;;;;;;0.00;0.00;;;;;12.37;72.71;99239.03;5064246;28;44896;-84
2021/12/28 05:56:54;;;;;;;;;2.50;0.00;;;;;12.06;72.26;99190.13;5065952;28;45348;-84
2021/12/28 05:59:20;;;;;;;;;0.00;0.00;;;;;12.19;72.22;99204.63;5064951;28;45605;-85
2021/12/28 06:01:45;;;;;;;;;0.00;0.00;;;;;12.21;72.56;99221.13;5065445;28;47596;-84
2021/12/28 06:04:11;;;;;;;;;0.00;0.00;;;;;12.44;72.46;99260.63;5069605;28;45788;-84
2021/12/28 06:06:37;;;;;;;;;1.00;0.00;;;;;12.34;71.98;99242.56;5072720;28;45264;-85
2021/12/28 06:09:04;;;;;;;;;0.00;0.00;;;;;11.95;71.78;99179.94;5074117;28;45211;-84
2021/12/28 06:11:29;;;;;;;;;0.00;0.00;;;;;11.89;72.22;99184.38;5067056;28;45666;-84
2021/12/28 06:13:55;;;;;;;;;0.00;0.00;;;;;12.28;71.75;99250.50;5069881;28;45369;-83
2021/12/28 06:16:20;;;;;;;;;0.00;0.00;;;;;12.03;71.77;99206.69;5068634;28;45411;-83
2021/12/28 06:18:46;;;;;;;;;0.00;0.00;;;;;12.41;71.20;99261.56;5067596;28;45519;-83
2021/12/28 06:21:11;;;;;;;;;0.00;0.00;;;;;12.27;71.22;99246.19;5068656;28;45557;-83
2021/12/28 06:23:37;;;;;;;;;0.00;0.00;;;;;12.31;71.10;99257.44;5070295;28;45285;-83
2021/12/28 06:26:03;;;;;;;;;1.00;0.00;;;;;12.52;71.16;99303.94;5073569;28;45224;-84
2021/12/28 06:28:28;;;;;;;;;0.00;0.00;;;;;12.40;70.80;99281.56;5069075;28;45300;-84
2021/12/28 06:30:54;;;;;;;;;1.50;0.00;;;;;12.46;70.69;99274.50;5066582;28;47193;-85
2021/12/28 06:33:20;;;;;;;;;0.75;0.00;;;;;12.52;70.40;99297.84;5050929;28;45419;-85
2021/12/28 06:35:46;;;;;;;;;0.00;0.00;;;;;12.22;70.31;99261.13;5047599;28;44668;-85
2021/12/28 06:38:12;;;;;;;;;0.00;0.00;;;;;12.50;70.36;99303.09;5046733;28;45325;-85
2021/12/28 06:40:37;;;;;;;;;0.00;0.00;;;;;12.49;70.54;99314.44;5047050;28;45531;-83
2021/12/28 06:43:03;;;;;;;;;0.00;0.00;;;;;12.22;70.19;99293.25;5046625;28;45256;-83
2021/12/28 06:45:31;;;;;;;;;0.00;0.00;;;;;12.21;70.73;99290.69;5048829;28;45322;-83
2021/12/28 06:47:56;;;;;;;;;0.00;0.00;;;;;12.21;70.64;99296.78;5050523;28;45344;-83
2021/12/28 06:50:22;;;;;;;;;0.50;0.00;;;;;11.95;70.05;99261.63;5046914;28;45592;-83
2021/12/28 06:52:47;;;;;;;;;0.25;0.00;;;;;12.24;70.01;99319.31;5045194;28;45274;-84
2021/12/28 06:55:13;;;;;;;;;0.00;0.00;;;;;12.16;69.96;99312.50;5047847;28;45343;-83
2021/12/28 06:57:38;;;;;;;;;0.00;0.00;;;;;12.15;69.87;99302.09;5047868;28;45276;-83
2021/12/28 07:00:13;;;;;;;;;0.00;0.00;;;;;12.31;69.83;99331.34;5047338;28;46179;-83
2021/12/28 07:02:39;;;;;;;;;0.00;0.00;;;;;12.32;69.81;99332.22;5046352;28;45487;-83
2021/12/28 07:05:06;;;;;;;;;0.00;0.00;;;;;12.00;69.86;99285.84;5046934;28;45396;-82
2021/12/28 07:07:32;;;;;;;;;2.75;1.75;;;;;12.15;69.38;99308.19;5046810;28;45527;-83
2021/12/28 07:09:57;;;;;;;;;0.00;0.00;;;;;11.86;69.32;99270.50;5046505;28;46095;-83
2021/12/28 07:12:23;;;;;;;;;1.00;0.00;;;;;12.37;69.48;99354.69;5046811;28;45286;-82
2021/12/28 07:14:48;;;;;;;;;0.00;0.00;;;;;12.15;69.53;99329.06;5045059;28;45385;-82
2021/12/28 07:17:14;;;;;;;;;0.00;0.00;;;;;11.84;69.45;99264.47;5046795;28;45240;-82
2021/12/28 07:19:39;;;;;;;;;0.00;0.00;;;;;12.37;69.58;99359.91;5054182;28;46357;-82
2021/12/28 07:22:05;;;;;;;;;0.00;0.00;;;;;12.03;69.50;99304.06;5050532;28;45288;-82
2021/12/28 07:24:30;;;;;;;;;0.00;0.00;;;;;12.26;69.29;99341.03;5046165;28;45434;-82
2021/12/28 07:26:56;;;;;;;;;0.00;0.00;;;;;11.79;69.32;99268.88;5045506;28;45431;-82
2021/12/28 07:29:22;;;;;;;;;0.00;0.00;;;;;11.84;69.53;99274.88;5044719;28;45661;-81
2021/12/28 07:31:49;;;;;;;;;0.00;0.00;;;;;11.99;69.10;99305.00;5047509;28;45398;-81
2021/12/28 07:34:15;;;;;;;;;0.00;0.00;;;;;12.11;69.28;99327.41;5064133;28;45410;-83
2021/12/28 07:36:40;;;;;;;;;0.00;0.00;;;;;11.59;69.54;99243.22;5045700;28;45236;-83
2021/12/28 07:39:06;;;;;;;;;0.00;0.00;;;;;12.33;69.44;99373.06;5044282;28;46423;-83
2021/12/28 07:41:32;;;;;;;;;0.00;0.00;;;;;11.84;69.53;99287.94;5044762;28;45509;-81
2021/12/28 07:43:58;;;;;;;;;0.00;0.00;;;;;11.90;69.68;99308.66;5044929;28;45298;-83
2021/12/28 07:46:24;;;;;;;;;0.00;0.00;;;;;12.20;70.01;99368.09;5044327;28;45237;-82
2021/12/28 07:48:49;;;;;;;;;0.00;0.00;;;;;11.83;69.89;99303.59;5044134;28;46148;-83
2021/12/28 07:51:15;;;;;;;;;0.00;0.00;;;;;11.88;69.67;99326.06;5043794;28;45451;-83
2021/12/28 07:53:40;;;;;;;;;0.00;0.00;;;;;12.21;69.54;99395.03;5044438;28;45372;-83
2021/12/28 07:56:06;;;;;;;;;0.00;0.00;;;;;11.81;69.97;99336.66;5044472;28;45604;-85
2021/12/28 07:58:31;;;;;;;;;0.00;0.00;;;;;11.76;69.70;99331.53;5044088;28;45439;-84
2021/12/28 08:00:57;;;;;;;;;0.00;0.00;;;;;12.01;70.18;99376.25;5062354;28;45411;-85
2021/12/28 08:03:24;;;;;;;;;1.00;1.00;;;;;12.35;70.36;99420.88;5042709;28;45436;-84
2021/12/28 08:05:51;;;;;;;;;0.00;0.00;;;;;12.15;70.49;99396.03;5031299;28;45621;-84
2021/12/28 08:08:17;;;;;;;;;0.00;0.00;;;;;11.96;70.28;99385.06;5035758;28;45500;-84
2021/12/28 08:10:43;;;;;;;;;0.00;0.00;;;;;11.70;70.75;99342.09;5033344;28;45224;-83
2021/12/28 08:13:08;;;;;;;;;0.00;0.00;;;;;11.51;70.74;99296.34;5057162;28;45534;-87
2021/12/28 08:15:34;;;;;;;;;0.00;0.00;;;;;11.78;71.07;99358.44;5034207;28;45644;-83
2021/12/28 08:18:02;;;;;;;;;0.00;0.00;;;;;12.13;71.26;99422.13;5033866;28;46292;-83
2021/12/28 08:20:28;;;;;;;;;0.25;0.00;;;;;11.54;71.32;99326.72;5030573;28;45362;-83
2021/12/28 08:22:53;;;;;;;;;0.00;0.00;;;;;12.35;71.51;99470.44;5024095;28;45323;-83
2021/12/28 08:25:20;;;;;;;;;0.00;0.00;;;;;12.16;71.49;99435.13;5028436;28;45450;-84
2021/12/28 08:27:45;;;;;;;;;2.25;0.00;;;;;11.96;71.29;99401.56;5032288;28;46813;-84
2021/12/28 08:30:14;;;;;;;;;0.00;0.00;;;;;12.07;71.42;99421.41;5036644;28;46324;-83
2021/12/28 08:32:39;;;;;;;;;0.00;0.00;;;;;12.39;71.68;99483.41;5034378;28;45396;-83
2021/12/28 08:35:06;;;;;;;;;0.00;0.00;;;;;12.36;71.42;99470.44;5045034;28;45653;-84
2021/12/28 08:37:32;;;;;;;;;0.00;0.00;;;;;12.39;71.56;99491.25;5034615;28;45473;-82
2021/12/28 08:39:58;;;;;;;;;0.00;0.00;;;;;11.87;71.02;99413.03;5043802;28;45317;-83
2021/12/28 08:42:24;;;;;;;;;0.00;0.00;;;;;11.96;71.01;99424.16;5059226;28;45450;-82
2021/12/28 08:44:50;;;;;;;;;0.00;0.00;;;;;11.91;71.27;99416.41;5035056;28;45816;-84
2021/12/28 08:47:17;;;;;;;;;0.00;0.00;;;;;12.23;71.54;99476.75;5031490;28;45553;-85
2021/12/28 08:49:42;;;;;;;;;0.00;0.00;;;;;12.07;71.78;99457.91;5033080;28;45240;-86
2021/12/28 08:52:08;;;;;;;;;0.00;0.00;;;;;11.81;71.88;99415.75;5027568;28;45220;-85
2021/12/28 08:54:34;;;;;;;;;0.00;0.00;;;;;12.12;72.29;99450.84;5031489;28;45215;-83
2021/12/28 08:56:59;;;;;;;;;0.00;0.00;;;;;11.69;72.68;99393.34;5028939;28;45561;-82
2021/12/28 08:59:25;;;;;;;;;0.00;0.00;;;;;12.13;72.53;99456.06;5047342;28;45583;-84
2021/12/28 09:01:51;;;;;;;;;0.00;0.00;;;;;12.24;72.89;99486.28;5034644;28;45466;-82
2021/12/28 09:04:18;;;;;;;;;0.00;0.00;;;;;12.20;73.00;99480.28;5032371;28;45434;-85
2021/12/28 09:06:44;;;;;;;;;0.00;0.00;;;;;12.37;72.81;99511.28;5036450;28;46695;-86
2021/12/28 09:09:10;;;;;;;;;0.00;0.00;;;;;11.55;72.58;99377.97;5036464;28;45504;-85
2021/12/28 09:11:36;;;;;;;;;0.75;0.00;;;;;11.88;72.36;99439.94;5027321;28;45506;-84
2021/12/28 09:14:02;;;;;;;;;0.00;0.00;;;;;12.19;72.07;99498.59;5044709;28;45408;-84
2021/12/28 09:16:27;;;;;;;;;0.00;0.00;;;;;11.90;71.61;99435.56;5040155;28;47021;-84
2021/12/28 09:18:53;;;;;;;;;0.00;0.00;;;;;12.00;70.82;99458.00;5029511;28;45230;-84
2021/12/28 09:21:18;;;;;;;;;1.00;1.00;;;;;12.42;70.37;99513.81;5035841;28;45474;-84
2021/12/28 09:23:44;;;;;;;;;0.00;0.00;;;;;12.42;70.04;99500.75;5032816;28;45670;-83
2021/12/28 09:26:09;;;;;;;;;0.00;0.00;;;;;11.74;69.44;99401.97;5033025;28;45880;-84
2021/12/28 09:28:35;;;;;;;;;0.00;0.00;;;;;12.33;69.19;99501.78;5038930;28;45389;-83
2021/12/28 09:31:01;;;;;;;;;0.00;0.00;;;;;12.44;68.99;99537.28;5033286;28;45413;-82
2021/12/28 09:33:26;;;;;;;;;0.00;0.00;;;;;12.24;68.95;99475.84;5033845;28;45402;-82
2021/12/28 09:35:52;;;;;;;;;0.00;0.00;;;;;12.45;68.04;99520.72;5037875;28;45898;-84
2021/12/28 09:38:19;;;;;;;;;0.00;0.00;;;;;12.50;67.99;99526.72;5039475;28;45491;-85
2021/12/28 09:40:46;;;;;;;;;0.00;0.00;;;;;12.26;67.33;99502.81;5044187;28;45474;-85
2021/12/28 09:43:13;;;;;;;;;0.00;0.00;;;;;12.24;67.66;99500.22;5030344;28;45296;-84
2021/12/28 09:45:38;;;;;;;;;0.00;0.00;;;;;12.09;67.38;99479.59;5047988;28;45646;-84
2021/12/28 09:48:04;;;;;;;;;0.00;0.00;;;;;12.49;67.35;99544.13;5037747;28;45174;-87
2021/12/28 09:50:31;;;;;;;;;0.00;0.00;;;;;11.83;66.59;99429.63;5039573;28;45341;-87
2021/12/28 09:52:56;;;;;;;;;0.00;0.00;;;;;12.48;66.00;99534.59;5043682;28;45378;-83
2021/12/28 09:55:24;;;;;;;;;0.00;0.00;;;;;12.07;65.67;99484.00;5040871;28;46376;-82
2021/12/28 09:57:50;;;;;;;;;0.00;0.00;;;;;12.37;66.18;99541.75;5041075;28;45672;-85
2021/12/28 10:00:17;;;;;;;;;0.00;0.00;;;;;12.49;65.54;99549.34;5041072;28;45253;-84
2021/12/28 10:02:43;;;;;;;;;0.00;0.00;;;;;12.28;65.84;99519.28;5042604;28;45262;-84
2021/12/28 10:05:12;;;;;;;;;0.00;0.00;;;;;12.51;64.97;99544.97;5039677;28;46126;-84
2021/12/28 10:07:44;;;;;;;;;0.00;0.00;;;;;12.51;64.16;99550.19;5036870;28;45309;-83
2021/12/28 10:10:10;;;;;;;;;0.50;0.00;;;;;12.29;64.03;99515.78;5043525;28;45232;-84
2021/12/28 10:12:41;;;;;;;;;0.00;0.00;;;;;11.81;64.38;99439.22;5043975;28;45528;-83
2021/12/28 10:15:13;;;;;;;;;0.00;0.00;;;;;11.95;63.79;99456.34;5058139;28;46837;-84
2021/12/28 10:17:41;;;;;;;;;0.25;0.00;;;;;12.49;63.07;99543.25;5031926;28;45576;-86
2021/12/28 10:20:19;;;;;;;;;0.00;0.00;;;;;12.50;63.33;99555.44;5031609;28;45767;-83
2021/12/28 10:22:48;;;;;;;;;0.00;0.00;;;;;12.29;62.80;99542.72;5035413;28;45389;-85
2021/12/28 10:25:18;;;;;;;;;0.50;0.00;;;;;12.49;62.94;99564.13;5030883;28;45734;-85
2021/12/28 10:27:58;;;;;;;;;0.00;0.00;;;;;11.68;62.31;99437.69;5027762;28;45414;-83
2021/12/28 10:30:50;;;;;;;;;0.00;0.00;;;;;12.49;61.72;99564.13;5036966;28;45583;-84
2021/12/28 10:33:19;;;;;;;;;0.00;0.00;;;;;12.08;62.33;99509.19;5047907;28;45476;-85
2021/12/28 10:35:51;;;;;;;;;0.00;0.00;;;;;12.26;61.78;99532.38;5041656;28;46167;-85
2021/12/28 10:38:22;;;;;;;;;0.00;0.00;;;;;12.07;61.52;99510.09;5033352;28;45485;-86
2021/12/28 10:40:51;;;;;;;;;0.00;0.00;;;;;12.51;61.55;99568.47;5032702;28;45488;-85
2021/12/28 10:43:40;;;;;;;;;0.50;0.00;;;;;11.80;61.44;99484.41;5032814;28;45480;-84
2021/12/28 10:46:13;;;;;;;;;0.00;0.00;;;;;12.03;61.58;99515.31;5054463;28;45396;-85
2021/12/28 10:48:45;;;;;;;;;0.00;0.00;;;;;12.53;61.50;99584.94;5041499;28;45508;-83
2021/12/28 10:51:14;;;;;;;;;0.00;0.00;;;;;11.99;61.55;99511.06;5031785;28;45537;-85
2021/12/28 10:56:36;;;;;;;;;0.50;0.50;;;;;12.16;61.13;99515.16;5047260;28;45482;-82
2021/12/28 10:59:03;;;;;;;;;0.00;0.00;;;;;12.13;60.97;99529.09;5032830;28;45395;-85
2021/12/28 11:01:32;;;;;;;;;0.25;0.25;;;;;12.44;61.21;99577.28;5043550;28;45284;-83
2021/12/28 11:04:05;;;;;;;;;0.00;0.00;;;;;12.24;61.27;99546.31;5041595;28;45759;-83
2021/12/28 11:06:33;;;;;;;;;0.00;0.00;;;;;12.06;61.74;99522.22;5029105;28;46360;-83
2021/12/28 11:09:06;;;;;;;;;0.00;0.00;;;;;12.58;61.52;99591.81;5052083;28;45386;-83
2021/12/28 11:11:33;;;;;;;;;0.00;0.00;;;;;12.19;61.64;99553.38;5057456;28;45633;-84
2021/12/28 11:14:04;;;;;;;;;1.25;0.50;;;;;12.26;61.20;99552.38;5056224;28;44849;-85
2021/12/28 11:16:31;;;;;;;;;0.00;0.00;;;;;12.21;60.97;99560.28;5070716;28;46166;-86
2021/12/28 11:19:02;;;;;;;;;0.00;0.00;;;;;12.37;61.23;99575.69;5058962;28;45389;-82
2021/12/28 11:21:36;;;;;;;;;0.00;0.00;;;;;12.14;60.80;99545.63;5044157;28;45417;-82
2021/12/28 11:24:06;;;;;;;;;0.00;0.00;;;;;12.62;60.52;99617.00;5049872;28;45595;-81
2021/12/28 11:26:32;;;;;;;;;0.00;0.00;;;;;12.71;60.64;99624.66;5056545;28;46050;-81
2021/12/28 11:29:04;;;;;;;;;1.00;1.00;;;;;12.80;60.34;99623.63;5045294;28;45417;-84
2021/12/28 11:31:35;;;;;;;;;0.50;0.25;;;;;12.85;60.44;99637.47;5060046;28;45203;-83
2021/12/28 11:34:08;;;;;;;;;0.00;0.00;;;;;12.50;59.83;99571.09;5048714;28;46467;-83
2021/12/28 11:36:39;;;;;;;;;0.00;0.00;;;;;12.98;59.49;99643.31;5053954;28;46230;-81
2021/12/28 11:39:08;;;;;;;;;0.00;0.00;;;;;12.84;58.72;99614.00;5045040;28;45456;-80